Time;durP1;ratioP1;P1;durP2;ratioP2;P2;SDS_P1;SDS_P2;PMS_P1;PMS_P2;Temp;Humidity;BMP_temperature;BMP_pressure;BME280_temperature;BME280_humidity;BME280_pressure;Samples;Min_cycle;Max_cycle;Signal;HPM_P1;HPM_P2
2021/09/08 00:00:39;;;;;;;14.5;12.2;;;;;;;10.92;100;99353.64;;;;
2021/09/08 00:10:38;;;;;;;18.5;13.7;;;;;;;10.83;100;99366.14;;;;
2021/09/08 00:20:37;;;;;;;16.9;14.6;;;;;;;10.67;100;99370.14;;;;
2021/09/08 00:30:36;;;;;;;15;10.8;;;;;;;10.63;100;99374.5;;;;
2021/09/08 00:40:35;;;;;;;14.2;11.9;;;;;;;10.49;100;99363.61;;;;
2021/09/08 00:50:34;;;;;;;14.9;12.7;;;;;;;10.43;100;99367.47;;;;
2021/09/08 01:00:33;;;;;;;15.7;11.8;;;;;;;10.31;100;99369.74;;;;
2021/09/08 01:10:32;;;;;;;17.1;13.7;;;;;;;10.24;100;99366.59;;;;
2021/09/08 01:20:31;;;;;;;15;13.4;;;;;;;10.17;100;99368.81;;;;
2021/09/08 01:30:30;;;;;;;17.8;14.2;;;;;;;10.17;100;99362.65;;;;
2021/09/08 01:40:29;;;;;;;14.8;12.5;;;;;;;10.15;100;99356.73;;;;
2021/09/08 01:50:28;;;;;;;17.8;14;;;;;;;10.01;100;99361.95;;;;
2021/09/08 02:20:25;;;;;;;14.9;11.2;;;;;;;9.58;100;99360.98;;;;
2021/09/08 02:30:25;;;;;;;15.3;13;;;;;;;9.47;100;99360.3;;;;
2021/09/08 02:40:25;;;;;;;12.3;11.1;;;;;;;9.2;100;99353.78;;;;
2021/09/08 02:50:22;;;;;;;20;12.9;;;;;;;9.28;100;99350.47;;;;
2021/09/08 03:00:27;;;;;;;15.5;12.7;;;;;;;9.27;100;99359.61;;;;
2021/09/08 03:10:26;;;;;;;14;11.4;;;;;;;9.19;100;99357.54;;;;
2021/09/08 03:20:22;;;;;;;15.9;12.7;;;;;;;9.19;100;99363.72;;;;
2021/09/08 03:30:17;;;;;;;15.5;11.9;;;;;;;9.1;100;99360;;;;
2021/09/08 03:40:16;;;;;;;15.9;12;;;;;;;9.05;100;99363.55;;;;
2021/09/08 03:50:14;;;;;;;17.2;10.8;;;;;;;8.97;100;99366.81;;;;
2021/09/08 04:00:13;;;;;;;11.7;9.3;;;;;;;8.88;100;99362.3;;;;
2021/09/08 04:10:12;;;;;;;11.6;9.6;;;;;;;8.9;100;99360.94;;;;
2021/09/08 04:20:11;;;;;;;15.1;10.9;;;;;;;8.95;100;99376.23;;;;
2021/09/08 04:30:10;;;;;;;15.1;11.2;;;;;;;9.06;100;99373.2;;;;
2021/09/08 04:40:09;;;;;;;14.6;12.3;;;;;;;9.29;100;99368.23;;;;
2021/09/08 04:50:07;;;;;;;22.5;12;;;;;;;9.52;100;99372.89;;;;
2021/09/08 05:00:06;;;;;;;13.9;10.4;;;;;;;9.81;100;99379.11;;;;
2021/09/08 05:10:05;;;;;;;14.6;10.5;;;;;;;10.15;100;99376.39;;;;
2021/09/08 05:20:04;;;;;;;15.9;13.2;;;;;;;10.55;100;99389.41;;;;
2021/09/08 05:30:03;;;;;;;15.5;13.9;;;;;;;11.07;100;99387.7;;;;
2021/09/08 05:40:02;;;;;;;22.6;17.5;;;;;;;11.36;100;99407.23;;;;
2021/09/08 05:50:01;;;;;;;41.3;36.5;;;;;;;11.79;100;99407.15;;;;
2021/09/08 06:00:00;;;;;;;29.7;21;;;;;;;12.3;100;99415.17;;;;
2021/09/08 06:09:59;;;;;;;24.2;17.3;;;;;;;12.88;100;99410.77;;;;
2021/09/08 06:19:59;;;;;;;18.3;15.2;;;;;;;13.3;100;99400.7;;;;
2021/09/08 06:29:58;;;;;;;17.6;13.3;;;;;;;13.89;100;99399.56;;;;
2021/09/08 06:39:57;;;;;;;16.3;13.5;;;;;;;14.39;100;99411.05;;;;
2021/09/08 06:49:56;;;;;;;23;13.8;;;;;;;15.17;100;99412.11;;;;
2021/09/08 06:59:56;;;;;;;15.7;11.4;;;;;;;15.8;100;99414.21;;;;
2021/09/08 07:09:56;;;;;;;23.8;13.3;;;;;;;16.31;100;99411.41;;;;
2021/09/08 07:19:55;;;;;;;18.2;12.5;;;;;;;16.73;100;99412.38;;;;
2021/09/08 07:29:55;;;;;;;18;12.8;;;;;;;17.51;100;99418.95;;;;
2021/09/08 07:39:55;;;;;;;18.2;13.6;;;;;;;17.88;100;99419.93;;;;
2021/09/08 07:49:55;;;;;;;16.8;11.7;;;;;;;18.42;100;99422.59;;;;
2021/09/08 07:59:55;;;;;;;15.2;10;;;;;;;18.85;100;99433;;;;
2021/09/08 08:09:55;;;;;;;15.4;10.3;;;;;;;19.25;100;99424.91;;;;
2021/09/08 08:19:55;;;;;;;11;8.1;;;;;;;19.67;100;99431.68;;;;
2021/09/08 08:29:55;;;;;;;15.5;10.2;;;;;;;19.94;100;99432.83;;;;
2021/09/08 08:39:55;;;;;;;15.1;9;;;;;;;20.25;100;99426.63;;;;
2021/09/08 08:49:56;;;;;;;9.5;8.3;;;;;;;20.87;100;99425.88;;;;
2021/09/08 08:59:56;;;;;;;10.1;7;;;;;;;20.64;100;99422.98;;;;
2021/09/08 09:09:56;;;;;;;11.6;7.6;;;;;;;21.28;100;99427.25;;;;
2021/09/08 09:20:00;;;;;;;11;7;;;;;;;21.77;100;99425.58;;;;
2021/09/08 09:29:57;;;;;;;11.1;7.5;;;;;;;21.98;100;99422.49;;;;
2021/09/08 09:39:58;;;;;;;15;8.5;;;;;;;22.24;100;99410.84;;;;
2021/09/08 09:49:59;;;;;;;9.4;7.4;;;;;;;22.46;100;99401.8;;;;
2021/09/08 09:59:59;;;;;;;10.3;7;;;;;;;22.52;100;99384.67;;;;
2021/09/08 10:09:59;;;;;;;10;6.7;;;;;;;22.66;100;99378.61;;;;
2021/09/08 10:20:00;;;;;;;10.3;7.6;;;;;;;23.19;100;99379.42;;;;
2021/09/08 10:30:00;;;;;;;11.7;7.3;;;;;;;23.32;99.05664;99372.55;;;;
2021/09/08 10:40:01;;;;;;;10;7.4;;;;;;;23.31;100;99367.41;;;;
2021/09/08 11:00:02;;;;;;;9.9;5.8;;;;;;;24.01;100;99359.23;;;;
2021/09/08 11:10:03;;;;;;;9.8;5.9;;;;;;;24.2;99.76855;99347.22;;;;
2021/09/08 11:20:04;;;;;;;10.3;6.8;;;;;;;24.43;96.96484;99340.38;;;;
2021/09/08 11:30:11;;;;;;;8.3;5.6;;;;;;;24.52;85.61719;99340.83;;;;
2021/09/08 11:40:10;;;;;;;10;6.9;;;;;;;24.62;80.16016;99325.54;;;;
2021/09/08 11:50:09;;;;;;;8.5;5.4;;;;;;;24.46;74.06348;99325.03;;;;
2021/09/08 12:00:10;;;;;;;8.2;5.4;;;;;;;24.49;76.56348;99318.75;;;;
2021/09/08 12:10:09;;;;;;;7.5;5.1;;;;;;;24.52;73.18848;99296.73;;;;
2021/09/08 12:20:11;;;;;;;7.1;5.2;;;;;;;24.42;72.75098;99288.38;;;;
2021/09/08 12:30:10;;;;;;;9.7;5.7;;;;;;;24.3;77.81055;99283.16;;;;
2021/09/08 12:40:10;;;;;;;9.8;5.9;;;;;;;24.41;77.51563;99278.53;;;;
2021/09/08 12:50:11;;;;;;;7;5.4;;;;;;;24.6;75.90527;99270.02;;;;
2021/09/08 13:00:12;;;;;;;8.6;5.5;;;;;;;24.48;71.68945;99262.84;;;;
2021/09/08 13:10:13;;;;;;;10;5.7;;;;;;;24.99;74.86328;99248.2;;;;
2021/09/08 13:20:14;;;;;;;8.3;4.5;;;;;;;25.1;72.00977;99232.47;;;;
2021/09/08 13:30:15;;;;;;;8.5;6.1;;;;;;;25.25;71.66016;99220.31;;;;
2021/09/08 13:40:16;;;;;;;8.5;6.4;;;;;;;25.64;70.25977;99201.11;;;;
2021/09/08 13:50:17;;;;;;;10.5;6.4;;;;;;;25.6;76.4707;99186.51;;;;
2021/09/08 14:00:17;;;;;;;8.6;5.6;;;;;;;25.52;70.66211;99179.39;;;;
2021/09/08 14:10:18;;;;;;;9.2;5.1;;;;;;;25.45;72.67285;99171.07;;;;
2021/09/08 14:20:19;;;;;;;12;7;;;;;;;25.39;73.71582;99167.92;;;;
2021/09/08 14:30:20;;;;;;;6.6;4.8;;;;;;;25.55;72.68848;99151;;;;
2021/09/08 14:40:21;;;;;;;8.9;5.9;;;;;;;26.03;72.04199;99149.41;;;;
2021/09/08 14:50:22;;;;;;;10;5.8;;;;;;;26.17;74.26367;99143.09;;;;
2021/09/08 15:00:23;;;;;;;12.6;6.4;;;;;;;25.44;73.73438;99136.39;;;;
2021/09/08 15:10:24;;;;;;;8.9;6.7;;;;;;;26.57;74.33984;99124.43;;;;
2021/09/08 15:20:25;;;;;;;7.8;6.8;;;;;;;28.22;62.03809;99125.28;;;;
2021/09/08 15:30:27;;;;;;;9.1;6.2;;;;;;;29.56;59.60449;99108.88;;;;
2021/09/08 15:40:27;;;;;;;11.8;6.7;;;;;;;28.85;57.39551;99098.01;;;;
2021/09/08 15:50:29;;;;;;;11.1;6.5;;;;;;;29.37;55.95703;99090.13;;;;
2021/09/08 16:00:31;;;;;;;8.7;6.6;;;;;;;29.81;55.22852;99089.01;;;;
2021/09/08 16:10:32;;;;;;;8.8;6.1;;;;;;;30.14;53.27344;99081.66;;;;
2021/09/08 16:20:34;;;;;;;10.9;6.4;;;;;;;29.76;54.33203;99075.59;;;;
2021/09/08 16:30:35;;;;;;;10.1;7;;;;;;;29.25;55.69238;99065.7;;;;
2021/09/08 16:40:37;;;;;;;9.4;6.8;;;;;;;26.35;66.24316;99054.61;;;;
2021/09/08 16:50:38;;;;;;;12.2;8.3;;;;;;;24.02;78.13477;99052.36;;;;
2021/09/08 17:00:39;;;;;;;11.6;8.3;;;;;;;22.58;87.07715;99047.19;;;;
2021/09/08 17:10:39;;;;;;;17.5;9.2;;;;;;;21.34;97.56641;99045.48;;;;
2021/09/08 17:20:40;;;;;;;12.7;9.6;;;;;;;20.42;100;99046.52;;;;
2021/09/08 17:30:40;;;;;;;15.5;12.3;;;;;;;19.73;100;99052.03;;;;
2021/09/08 17:40:52;;;;;;;17.8;14.7;;;;;;;19.16;100;99067.04;;;;
2021/09/08 17:50:41;;;;;;;24.9;17.3;;;;;;;18.64;100;99052.81;;;;
2021/09/08 18:00:40;;;;;;;17;15.2;;;;;;;18.17;100;99061.59;;;;
2021/09/08 18:10:40;;;;;;;19;13.5;;;;;;;17.88;100;99059.16;;;;
2021/09/08 18:20:40;;;;;;;17.4;14.4;;;;;;;17.49;100;99055.98;;;;
2021/09/08 18:30:40;;;;;;;19.8;17.7;;;;;;;17.18;100;99053.02;;;;
2021/09/08 18:40:39;;;;;;;24.6;21.3;;;;;;;16.98;100;99049.27;;;;
2021/09/08 18:50:39;;;;;;;21.1;18.2;;;;;;;16.81;100;99054.91;;;;
2021/09/08 19:00:41;;;;;;;19.8;14.9;;;;;;;16.63;100;99058.13;;;;
2021/09/08 19:10:39;;;;;;;24.2;18.8;;;;;;;16.16;100;99054.86;;;;
2021/09/08 19:20:38;;;;;;;20.2;16.2;;;;;;;15.79;100;99062.02;;;;
2021/09/08 19:30:38;;;;;;;22.4;16.9;;;;;;;15.34;100;99062.53;;;;
2021/09/08 19:40:37;;;;;;;20.6;17.2;;;;;;;14.99;100;99063.81;;;;
2021/09/08 19:50:37;;;;;;;23.9;16.4;;;;;;;14.59;100;99060.55;;;;
2021/09/08 20:00:36;;;;;;;31.5;23.2;;;;;;;14.39;100;99053.09;;;;
2021/09/08 20:10:36;;;;;;;42.3;27.1;;;;;;;14.18;100;99050.2;;;;
2021/09/08 20:20:35;;;;;;;30.6;20.6;;;;;;;13.99;100;99053.22;;;;
2021/09/08 20:30:35;;;;;;;20.5;17.6;;;;;;;13.89;100;99052.73;;;;
2021/09/08 20:40:34;;;;;;;21.2;16.7;;;;;;;13.69;100;99056.85;;;;
2021/09/08 20:50:33;;;;;;;19.6;16.3;;;;;;;13.52;100;99048.69;;;;
2021/09/08 21:00:33;;;;;;;22.4;14.9;;;;;;;13.24;100;99061.67;;;;
2021/09/08 21:10:32;;;;;;;25.6;16.3;;;;;;;13.01;100;99055.51;;;;
2021/09/08 21:20:31;;;;;;;18.5;14.4;;;;;;;12.85;100;99064.31;;;;
2021/09/08 21:30:30;;;;;;;19.3;15.1;;;;;;;12.62;100;99066.27;;;;
2021/09/08 21:40:30;;;;;;;20.2;15.5;;;;;;;12.43;100;99065.64;;;;
2021/09/08 21:50:29;;;;;;;23.5;17.4;;;;;;;12.22;100;99062.63;;;;
2021/09/08 22:00:28;;;;;;;20;17.8;;;;;;;12.21;100;99065.66;;;;
2021/09/08 22:10:30;;;;;;;22.1;19.7;;;;;;;12.18;100;99056.27;;;;
2021/09/08 22:20:26;;;;;;;19.2;16.2;;;;;;;12;100;99068.03;;;;
2021/09/08 22:30:25;;;;;;;21;16.9;;;;;;;11.78;100;99065.27;;;;
2021/09/08 22:40:24;;;;;;;17.7;15.9;;;;;;;11.65;100;99064.17;;;;
2021/09/08 22:50:23;;;;;;;18.8;14.5;;;;;;;11.55;100;99061.69;;;;
2021/09/08 23:00:23;;;;;;;20.1;16.3;;;;;;;11.46;100;99039.19;;;;
2021/09/08 23:10:22;;;;;;;15.8;13.7;;;;;;;11.33;100;99045.4;;;;
2021/09/08 23:20:21;;;;;;;17.5;14.8;;;;;;;11.19;100;99039.2;;;;
2021/09/08 23:30:20;;;;;;;18.5;13.4;;;;;;;11.12;100;99045;;;;
2021/09/08 23:40:19;;;;;;;16.6;14.1;;;;;;;11.08;100;99039.41;;;;
2021/09/08 23:50:18;;;;;;;15;12.8;;;;;;;10.96;100;99031.03;;;;
